sensor_id;sensor_type;location;lat;lon;timestamp;pressure;altitude;pressure_sealevel;temperature;humidity
21980;BME280;11154;48.558;9.234;2023-11-21T00:00:11;96953.66;;;14.05;89.22
21980;BME280;11154;48.558;9.234;2023-11-21T00:02:13;96959.41;;;14.02;89.56
21980;BME280;11154;48.558;9.234;2023-11-21T00:04:14;96954.06;;;14.02;90.17
21980;BME280;11154;48.558;9.234;2023-11-21T00:06:16;96950.97;;;14.05;90.62
21980;BME280;11154;48.558;9.234;2023-11-21T00:08:16;96957.16;;;14.06;90.82
21980;BME280;11154;48.558;9.234;2023-11-21T00:10:19;96952.63;;;14.06;90.62
21980;BME280;11154;48.558;9.234;2023-11-21T00:12:22;96954.91;;;14.09;90.49
21980;BME280;11154;48.558;9.234;2023-11-21T00:14:23;96959.28;;;14.10;90.44
21980;BME280;11154;48.558;9.234;2023-11-21T00:16:24;96946.53;;;14.12;90.47
21980;BME280;11154;48.558;9.234;2023-11-21T00:18:26;96946.53;;;14.12;90.49
21980;BME280;11154;48.558;9.234;2023-11-21T00:20:28;96940.38;;;14.12;90.71
21980;BME280;11154;48.558;9.234;2023-11-21T00:22:29;96944.50;;;14.14;90.54
21980;BME280;11154;48.558;9.234;2023-11-21T00:24:30;96933.59;;;14.16;90.61
21980;BME280;11154;48.558;9.234;2023-11-21T00:26:32;96936.25;;;14.16;90.33
21980;BME280;11154;48.558;9.234;2023-11-21T00:28:38;96938.75;;;14.17;90.62
21980;BME280;11154;48.558;9.234;2023-11-21T00:30:40;96938.13;;;14.15;90.66
21980;BME280;11154;48.558;9.234;2023-11-21T00:32:41;96937.09;;;14.16;90.89
21980;BME280;11154;48.558;9.234;2023-11-21T00:34:43;96942.44;;;14.16;90.40
21980;BME280;11154;48.558;9.234;2023-11-21T00:36:44;96944.91;;;14.18;90.45
21980;BME280;11154;48.558;9.234;2023-11-21T00:38:45;96944.34;;;14.22;90.41
21980;BME280;11154;48.558;9.234;2023-11-21T00:40:48;96935.91;;;14.25;90.19
21980;BME280;11154;48.558;9.234;2023-11-21T00:42:50;96943.09;;;14.25;90.10
21980;BME280;11154;48.558;9.234;2023-11-21T00:44:53;96940.88;;;14.28;90.20
21980;BME280;11154;48.558;9.234;2023-11-21T00:46:54;96947.66;;;14.31;90.13
21980;BME280;11154;48.558;9.234;2023-11-21T00:48:55;96946.66;;;14.32;90.04
21980;BME280;11154;48.558;9.234;2023-11-21T00:50:57;96948.47;;;14.31;90.14
21980;BME280;11154;48.558;9.234;2023-11-21T00:52:59;96946.66;;;14.32;90.14
21980;BME280;11154;48.558;9.234;2023-11-21T00:55:02;96947.25;;;14.34;89.65
21980;BME280;11154;48.558;9.234;2023-11-21T00:57:03;96943.38;;;14.36;90.38
21980;BME280;11154;48.558;9.234;2023-11-21T00:59:05;96938.22;;;14.35;90.23
21980;BME280;11154;48.558;9.234;2023-11-21T01:01:08;96949.53;;;14.37;89.84
21980;BME280;11154;48.558;9.234;2023-11-21T01:03:10;96945.84;;;14.38;89.80
21980;BME280;11154;48.558;9.234;2023-11-21T01:05:12;96945.00;;;14.37;89.52
21980;BME280;11154;48.558;9.234;2023-11-21T01:07:13;96951.00;;;14.39;89.90
21980;BME280;11154;48.558;9.234;2023-11-21T01:09:14;96950.19;;;14.39;90.37
21980;BME280;11154;48.558;9.234;2023-11-21T01:11:18;96942.59;;;14.42;90.35
21980;BME280;11154;48.558;9.234;2023-11-21T01:13:20;96935.56;;;14.41;90.41
21980;BME280;11154;48.558;9.234;2023-11-21T01:15:21;96937.22;;;14.42;90.69
21980;BME280;11154;48.558;9.234;2023-11-21T01:17:25;96930.44;;;14.40;90.09
21980;BME280;11154;48.558;9.234;2023-11-21T01:19:27;96927.75;;;14.40;89.74
21980;BME280;11154;48.558;9.234;2023-11-21T01:21:29;96927.34;;;14.36;89.80
21980;BME280;11154;48.558;9.234;2023-11-21T01:23:31;96927.34;;;14.36;89.68
21980;BME280;11154;48.558;9.234;2023-11-21T01:25:32;96929.38;;;14.34;89.59
21980;BME280;11154;48.558;9.234;2023-11-21T01:27:33;96932.84;;;14.28;89.50
21980;BME280;11154;48.558;9.234;2023-11-21T01:29:35;96926.84;;;14.26;89.82
21980;BME280;11154;48.558;9.234;2023-11-21T01:31:37;96926.84;;;14.26;89.77
21980;BME280;11154;48.558;9.234;2023-11-21T01:33:40;96921.72;;;14.25;89.31
21980;BME280;11154;48.558;9.234;2023-11-21T01:35:42;96922.94;;;14.22;89.25
21980;BME280;11154;48.558;9.234;2023-11-21T01:37:42;96923.97;;;14.21;89.12
21980;BME280;11154;48.558;9.234;2023-11-21T01:39:44;96921.28;;;14.21;89.03
21980;BME280;11154;48.558;9.234;2023-11-21T01:41:47;96929.50;;;14.20;88.80
21980;BME280;11154;48.558;9.234;2023-11-21T01:43:48;96913.25;;;14.21;88.67
21980;BME280;11154;48.558;9.234;2023-11-21T01:45:51;96912.84;;;14.18;88.65
21980;BME280;11154;48.558;9.234;2023-11-21T01:47:53;96917.38;;;14.17;88.67
21980;BME280;11154;48.558;9.234;2023-11-21T01:49:56;96907.88;;;14.15;88.49
21980;BME280;11154;48.558;9.234;2023-11-21T01:51:57;96909.09;;;14.12;88.38
21980;BME280;11154;48.558;9.234;2023-11-21T01:53:58;96906.81;;;14.09;88.20
21980;BME280;11154;48.558;9.234;2023-11-21T01:56:00;96914.38;;;14.06;88.05
21980;BME280;11154;48.558;9.234;2023-11-21T01:58:02;96917.06;;;14.06;87.62
21980;BME280;11154;48.558;9.234;2023-11-21T02:00:04;96890.53;;;14.04;87.16
21980;BME280;11154;48.558;9.234;2023-11-21T02:02:15;96888.84;;;12.17;95.94
21980;BME280;11154;48.558;9.234;2023-11-21T02:04:18;96892.00;;;11.63;100.00
21980;BME280;11154;48.558;9.234;2023-11-21T02:06:21;96895.50;;;11.27;100.00
21980;BME280;11154;48.558;9.234;2023-11-21T02:08:24;96896.56;;;11.03;100.00
21980;BME280;11154;48.558;9.234;2023-11-21T02:10:27;96897.97;;;10.91;100.00
21980;BME280;11154;48.558;9.234;2023-11-21T02:12:27;96895.03;;;10.86;100.00
21980;BME280;11154;48.558;9.234;2023-11-21T02:14:29;96893.38;;;10.85;100.00
21980;BME280;11154;48.558;9.234;2023-11-21T02:16:32;96897.38;;;10.81;100.00
21980;BME280;11154;48.558;9.234;2023-11-21T02:18:33;96896.38;;;10.82;100.00
21980;BME280;11154;48.558;9.234;2023-11-21T02:20:35;96894.91;;;10.80;100.00
21980;BME280;11154;48.558;9.234;2023-11-21T02:22:40;96889.97;;;10.77;100.00
21980;BME280;11154;48.558;9.234;2023-11-21T02:24:43;96891.31;;;10.73;100.00
21980;BME280;11154;48.558;9.234;2023-11-21T02:26:46;96887.84;;;10.73;100.00
21980;BME280;11154;48.558;9.234;2023-11-21T02:28:47;96889.31;;;10.75;100.00
21980;BME280;11154;48.558;9.234;2023-11-21T02:30:49;96889.50;;;10.74;100.00
21980;BME280;11154;48.558;9.234;2023-11-21T02:32:56;96889.50;;;10.74;100.00
21980;BME280;11154;48.558;9.234;2023-11-21T02:34:58;96888.47;;;10.75;100.00
21980;BME280;11154;48.558;9.234;2023-11-21T02:37:04;96890.19;;;10.68;100.00
21980;BME280;11154;48.558;9.234;2023-11-21T02:39:06;96880.16;;;10.55;100.00
21980;BME280;11154;48.558;9.234;2023-11-21T02:41:09;96881.81;;;10.56;100.00
21980;BME280;11154;48.558;9.234;2023-11-21T02:43:11;96884.28;;;10.58;100.00
21980;BME280;11154;48.558;9.234;2023-11-21T02:45:13;96885.94;;;10.59;100.00
21980;BME280;11154;48.558;9.234;2023-11-21T02:47:16;96889.59;;;10.58;100.00
21980;BME280;11154;48.558;9.234;2023-11-21T02:49:18;96884.47;;;10.56;100.00
21980;BME280;11154;48.558;9.234;2023-11-21T02:51:20;96878.63;;;10.61;100.00
21980;BME280;11154;48.558;9.234;2023-11-21T02:53:21;96880.34;;;10.54;100.00
21980;BME280;11154;48.558;9.234;2023-11-21T02:55:25;96878.00;;;10.51;100.00
21980;BME280;11154;48.558;9.234;2023-11-21T02:57:27;96877.00;;;10.52;100.00
21980;BME280;11154;48.558;9.234;2023-11-21T02:59:28;96872.34;;;10.54;100.00
21980;BME280;11154;48.558;9.234;2023-11-21T03:01:30;96880.81;;;10.57;100.00
21980;BME280;11154;48.558;9.234;2023-11-21T03:03:31;96884.66;;;10.55;100.00
21980;BME280;11154;48.558;9.234;2023-11-21T03:05:32;96886.75;;;10.59;100.00
21980;BME280;11154;48.558;9.234;2023-11-21T03:07:36;96886.94;;;10.58;100.00
21980;BME280;11154;48.558;9.234;2023-11-21T03:09:37;96883.81;;;10.54;100.00
21980;BME280;11154;48.558;9.234;2023-11-21T03:11:39;96886.13;;;10.57;100.00
21980;BME280;11154;48.558;9.234;2023-11-21T03:13:42;96891.59;;;10.56;100.00
21980;BME280;11154;48.558;9.234;2023-11-21T03:15:43;96889.59;;;10.58;100.00
21980;BME280;11154;48.558;9.234;2023-11-21T03:17:44;96887.94;;;10.57;100.00
21980;BME280;11154;48.558;9.234;2023-11-21T03:19:45;96888.41;;;10.60;100.00
21980;BME280;11154;48.558;9.234;2023-11-21T03:21:46;96890.78;;;10.55;100.00
21980;BME280;11154;48.558;9.234;2023-11-21T03:23:48;96885.47;;;10.55;100.00
21980;BME280;11154;48.558;9.234;2023-11-21T03:25:50;96882.28;;;10.60;100.00
21980;BME280;11154;48.558;9.234;2023-11-21T03:27:51;96890.44;;;10.58;100.00
21980;BME280;11154;48.558;9.234;2023-11-21T03:29:55;96885.75;;;10.60;100.00
21980;BME280;11154;48.558;9.234;2023-11-21T03:31:56;96880.63;;;10.59;100.00
21980;BME280;11154;48.558;9.234;2023-11-21T03:33:58;96882.63;;;10.57;100.00
21980;BME280;11154;48.558;9.234;2023-11-21T03:35:58;96878.44;;;10.62;100.00
21980;BME280;11154;48.558;9.234;2023-11-21T03:38:00;96889.41;;;10.59;100.00
21980;BME280;11154;48.558;9.234;2023-11-21T03:40:02;96880.25;;;10.62;100.00
21980;BME280;11154;48.558;9.234;2023-11-21T03:42:04;96886.41;;;10.62;100.00
21980;BME280;11154;48.558;9.234;2023-11-21T03:44:06;96882.75;;;10.63;100.00
21980;BME280;11154;48.558;9.234;2023-11-21T03:46:09;96890.19;;;10.68;100.00
21980;BME280;11154;48.558;9.234;2023-11-21T03:48:12;96883.22;;;10.67;100.00
21980;BME280;11154;48.558;9.234;2023-11-21T03:50:14;96883.56;;;10.64;100.00
21980;BME280;11154;48.558;9.234;2023-11-21T03:52:14;96885.56;;;10.62;100.00
21980;BME280;11154;48.558;9.234;2023-11-21T03:54:16;96898.50;;;10.65;100.00
21980;BME280;11154;48.558;9.234;2023-11-21T03:56:18;96896.03;;;10.63;100.00
21980;BME280;11154;48.558;9.234;2023-11-21T03:58:20;96894.56;;;10.61;100.00
21980;BME280;11154;48.558;9.234;2023-11-21T04:00:22;96923.16;;;10.81;100.00
21980;BME280;11154;48.558;9.234;2023-11-21T04:02:25;96916.78;;;11.63;100.00
21980;BME280;11154;48.558;9.234;2023-11-21T04:04:28;96914.88;;;12.01;100.00
21980;BME280;11154;48.558;9.234;2023-11-21T04:06:29;96910.88;;;12.25;100.00
21980;BME280;11154;48.558;9.234;2023-11-21T04:08:30;96904.00;;;12.52;99.77
21980;BME280;11154;48.558;9.234;2023-11-21T04:10:34;96908.38;;;12.74;97.78
21980;BME280;11154;48.558;9.234;2023-11-21T04:12:36;96911.25;;;12.93;96.19
21980;BME280;11154;48.558;9.234;2023-11-21T04:14:38;96916.16;;;13.10;94.75
21980;BME280;11154;48.558;9.234;2023-11-21T04:16:40;96921.41;;;13.25;93.56
21980;BME280;11154;48.558;9.234;2023-11-21T04:18:43;96923.38;;;13.37;92.70
21980;BME280;11154;48.558;9.234;2023-11-21T04:20:45;96923.22;;;13.45;91.55
21980;BME280;11154;48.558;9.234;2023-11-21T04:22:46;96924.72;;;13.54;90.94
21980;BME280;11154;48.558;9.234;2023-11-21T04:24:49;96928.47;;;13.60;90.12
21980;BME280;11154;48.558;9.234;2023-11-21T04:26:51;96918.69;;;13.67;89.70
21980;BME280;11154;48.558;9.234;2023-11-21T04:28:52;96928.94;;;13.69;88.94
21980;BME280;11154;48.558;9.234;2023-11-21T04:30:54;96920.34;;;13.74;88.42
21980;BME280;11154;48.558;9.234;2023-11-21T04:32:56;96928.16;;;13.75;88.24
21980;BME280;11154;48.558;9.234;2023-11-21T04:34:58;96924.06;;;13.79;88.02
21980;BME280;11154;48.558;9.234;2023-11-21T04:37:00;96927.78;;;13.78;87.78
21980;BME280;11154;48.558;9.234;2023-11-21T04:39:02;96931.06;;;13.80;88.22
21980;BME280;11154;48.558;9.234;2023-11-21T04:41:04;96924.72;;;13.81;88.14
21980;BME280;11154;48.558;9.234;2023-11-21T04:43:06;96933.81;;;13.87;88.23
21980;BME280;11154;48.558;9.234;2023-11-21T04:45:08;96942.25;;;13.90;88.46
21980;BME280;11154;48.558;9.234;2023-11-21T04:47:11;96937.72;;;13.91;88.39
21980;BME280;11154;48.558;9.234;2023-11-21T04:49:14;96942.25;;;13.90;88.07
21980;BME280;11154;48.558;9.234;2023-11-21T04:51:17;96944.72;;;13.92;88.05
21980;BME280;11154;48.558;9.234;2023-11-21T04:53:18;96947.59;;;13.90;88.24
21980;BME280;11154;48.558;9.234;2023-11-21T04:55:19;96938.56;;;13.91;89.26
21980;BME280;11154;48.558;9.234;2023-11-21T04:57:20;96945.53;;;13.92;89.59
21980;BME280;11154;48.558;9.234;2023-11-21T04:59:22;96951.94;;;13.91;89.62
21980;BME280;11154;48.558;9.234;2023-11-21T05:01:25;96951.09;;;13.91;89.59
21980;BME280;11154;48.558;9.234;2023-11-21T05:03:26;96950.88;;;13.92;89.53
21980;BME280;11154;48.558;9.234;2023-11-21T05:05:30;96949.63;;;13.88;89.09
21980;BME280;11154;48.558;9.234;2023-11-21T05:07:33;96951.44;;;13.81;87.76
21980;BME280;11154;48.558;9.234;2023-11-21T05:09:36;96947.97;;;13.81;87.94
21980;BME280;11154;48.558;9.234;2023-11-21T05:11:38;96954.31;;;13.80;87.61
21980;BME280;11154;48.558;9.234;2023-11-21T05:13:41;96955.53;;;13.77;87.92
21980;BME280;11154;48.558;9.234;2023-11-21T05:15:43;96952.03;;;13.77;88.09
21980;BME280;11154;48.558;9.234;2023-11-21T05:17:45;96959.22;;;13.76;88.47
21980;BME280;11154;48.558;9.234;2023-11-21T05:19:49;96950.19;;;13.77;88.00
21980;BME280;11154;48.558;9.234;2023-11-21T05:21:51;96961.91;;;13.76;88.27
21980;BME280;11154;48.558;9.234;2023-11-21T05:23:54;96958.81;;;13.79;88.52
21980;BME280;11154;48.558;9.234;2023-11-21T05:25:55;96960.09;;;13.83;89.66
21980;BME280;11154;48.558;9.234;2023-11-21T05:27:57;96957.66;;;13.88;90.61
21980;BME280;11154;48.558;9.234;2023-11-21T05:30:01;96963.59;;;13.84;89.17
21980;BME280;11154;48.558;9.234;2023-11-21T05:32:05;96962.78;;;13.83;88.06
21980;BME280;11154;48.558;9.234;2023-11-21T05:34:07;96966.25;;;13.84;87.32
21980;BME280;11154;48.558;9.234;2023-11-21T05:36:09;96962.13;;;13.81;87.77
21980;BME280;11154;48.558;9.234;2023-11-21T05:38:10;96970.16;;;13.81;87.91
21980;BME280;11154;48.558;9.234;2023-11-21T05:40:14;96968.31;;;13.82;88.09
21980;BME280;11154;48.558;9.234;2023-11-21T05:42:15;96981.25;;;13.78;87.41
21980;BME280;11154;48.558;9.234;2023-11-21T05:44:17;96975.91;;;13.78;88.29
21980;BME280;11154;48.558;9.234;2023-11-21T05:46:18;96978.56;;;13.78;88.55
21980;BME280;11154;48.558;9.234;2023-11-21T05:48:20;96975.91;;;13.78;88.53
21980;BME280;11154;48.558;9.234;2023-11-21T05:50:22;96968.91;;;13.77;88.60
21980;BME280;11154;48.558;9.234;2023-11-21T05:52:24;96976.91;;;13.77;88.77
21980;BME280;11154;48.558;9.234;2023-11-21T05:54:26;96978.94;;;13.75;89.33
21980;BME280;11154;48.558;9.234;2023-11-21T05:56:28;96978.75;;;13.77;89.57
21980;BME280;11154;48.558;9.234;2023-11-21T05:58:30;96972.59;;;13.76;89.34
21980;BME280;11154;48.558;9.234;2023-11-21T06:00:32;96979.59;;;13.77;89.18
21980;BME280;11154;48.558;9.234;2023-11-21T06:02:34;96978.75;;;13.77;89.25
21980;BME280;11154;48.558;9.234;2023-11-21T06:04:35;96980.19;;;13.79;89.82
21980;BME280;11154;48.558;9.234;2023-11-21T06:06:37;96983.72;;;13.80;89.96
21980;BME280;11154;48.558;9.234;2023-11-21T06:08:39;96987.84;;;13.82;90.41
21980;BME280;11154;48.558;9.234;2023-11-21T06:10:40;96985.59;;;13.86;89.16
21980;BME280;11154;48.558;9.234;2023-11-21T06:12:43;96996.09;;;13.87;89.10
21980;BME280;11154;48.558;9.234;2023-11-21T06:14:44;96997.09;;;13.86;88.59
21980;BME280;11154;48.558;9.234;2023-11-21T06:16:45;96989.16;;;13.93;92.36
21980;BME280;11154;48.558;9.234;2023-11-21T06:18:47;96998.63;;;13.95;93.50
21980;BME280;11154;48.558;9.234;2023-11-21T06:20:49;97001.06;;;13.90;91.92
21980;BME280;11154;48.558;9.234;2023-11-21T06:22:52;97010.09;;;13.89;90.30
21980;BME280;11154;48.558;9.234;2023-11-21T06:24:55;97003.09;;;13.88;88.81
21980;BME280;11154;48.558;9.234;2023-11-21T06:26:56;96999.78;;;13.86;88.73
21980;BME280;11154;48.558;9.234;2023-11-21T06:29:00;97004.75;;;13.89;88.76
21980;BME280;11154;48.558;9.234;2023-11-21T06:31:03;97010.09;;;13.89;87.62
21980;BME280;11154;48.558;9.234;2023-11-21T06:33:05;97008.06;;;13.91;87.49
21980;BME280;11154;48.558;9.234;2023-11-21T06:35:08;97014.28;;;13.98;88.65
21980;BME280;11154;48.558;9.234;2023-11-21T06:37:10;97012.41;;;14.20;87.74
21980;BME280;11154;48.558;9.234;2023-11-21T06:39:12;97023.22;;;14.39;85.91
21980;BME280;11154;48.558;9.234;2023-11-21T06:41:15;97027.41;;;14.54;82.88
21980;BME280;11154;48.558;9.234;2023-11-21T06:43:17;97025.00;;;14.66;82.09
21980;BME280;11154;48.558;9.234;2023-11-21T06:45:20;97023.81;;;14.75;81.44
21980;BME280;11154;48.558;9.234;2023-11-21T06:47:21;97024.66;;;14.82;81.93
21980;BME280;11154;48.558;9.234;2023-11-21T06:49:25;97030.88;;;14.15;85.87
21980;BME280;11154;48.558;9.234;2023-11-21T06:51:26;97032.19;;;13.77;88.88
21980;BME280;11154;48.558;9.234;2023-11-21T06:53:28;97027.06;;;13.55;90.73
21980;BME280;11154;48.558;9.234;2023-11-21T06:55:28;97032.47;;;13.40;92.24
21980;BME280;11154;48.558;9.234;2023-11-21T06:57:31;97031.13;;;13.30;93.57
21980;BME280;11154;48.558;9.234;2023-11-21T06:59:33;97042.97;;;13.21;94.30
21980;BME280;11154;48.558;9.234;2023-11-21T07:01:36;97036.53;;;13.15;94.54
21980;BME280;11154;48.558;9.234;2023-11-21T07:03:39;97036.06;;;13.12;95.19
21980;BME280;11154;48.558;9.234;2023-11-21T07:05:41;97038.47;;;13.07;95.72
21980;BME280;11154;48.558;9.234;2023-11-21T07:07:43;97041.50;;;13.04;95.82
21980;BME280;11154;48.558;9.234;2023-11-21T07:09:43;97043.16;;;13.05;96.56
21980;BME280;11154;48.558;9.234;2023-11-21T07:11:45;97038.84;;;13.04;96.91
21980;BME280;11154;48.558;9.234;2023-11-21T07:13:48;97037.38;;;13.01;96.68
21980;BME280;11154;48.558;9.234;2023-11-21T07:15:51;97043.88;;;12.93;97.09
21980;BME280;11154;48.558;9.234;2023-11-21T07:17:54;97058.56;;;12.89;97.54
21980;BME280;11154;48.558;9.234;2023-11-21T07:19:55;97060.72;;;13.49;96.38
21980;BME280;11154;48.558;9.234;2023-11-21T07:21:57;97063.44;;;13.76;94.59
21980;BME280;11154;48.558;9.234;2023-11-21T07:23:58;97066.09;;;13.97;93.08
21980;BME280;11154;48.558;9.234;2023-11-21T07:26:01;97061.50;;;14.12;91.79
21980;BME280;11154;48.558;9.234;2023-11-21T07:28:03;97064.19;;;14.40;91.58
21980;BME280;11154;48.558;9.234;2023-11-21T07:30:06;97061.06;;;14.70;89.84
21980;BME280;11154;48.558;9.234;2023-11-21T07:32:10;97064.16;;;14.73;88.85
21980;BME280;11154;48.558;9.234;2023-11-21T07:34:13;97059.44;;;14.75;88.79
21980;BME280;11154;48.558;9.234;2023-11-21T07:36:14;97063.56;;;14.78;88.76
21980;BME280;11154;48.558;9.234;2023-11-21T07:38:18;97071.22;;;14.81;88.82
21980;BME280;11154;48.558;9.234;2023-11-21T07:40:20;97059.66;;;14.80;88.71
21980;BME280;11154;48.558;9.234;2023-11-21T07:42:23;97068.28;;;14.76;88.80
21980;BME280;11154;48.558;9.234;2023-11-21T07:44:24;97069.72;;;14.72;89.04
21980;BME280;11154;48.558;9.234;2023-11-21T07:46:26;97070.53;;;14.72;89.12
21980;BME280;11154;48.558;9.234;2023-11-21T07:48:28;97067.03;;;14.72;89.27
21980;BME280;11154;48.558;9.234;2023-11-21T07:50:31;97074.88;;;14.73;89.19
21980;BME280;11154;48.558;9.234;2023-11-21T07:52:33;97071.97;;;14.75;89.06
21980;BME280;11154;48.558;9.234;2023-11-21T07:54:35;97071.16;;;14.74;88.83
21980;BME280;11154;48.558;9.234;2023-11-21T07:56:36;97081.06;;;14.74;88.44
21980;BME280;11154;48.558;9.234;2023-11-21T07:58:38;97088.44;;;14.72;88.68
21980;BME280;11154;48.558;9.234;2023-11-21T08:00:39;97090.13;;;14.73;88.88
21980;BME280;11154;48.558;9.234;2023-11-21T08:02:40;97082.28;;;14.71;88.77
21980;BME280;11154;48.558;9.234;2023-11-21T08:04:42;97088.44;;;14.72;89.05
21980;BME280;11154;48.558;9.234;2023-11-21T08:06:45;97088.44;;;14.72;89.09
21980;BME280;11154;48.558;9.234;2023-11-21T08:08:47;97089.47;;;14.71;88.97
21980;BME280;11154;48.558;9.234;2023-11-21T08:10:49;97087.63;;;14.71;89.14
21980;BME280;11154;48.558;9.234;2023-11-21T08:12:56;97089.25;;;14.72;89.18
21980;BME280;11154;48.558;9.234;2023-11-21T08:14:58;97091.50;;;14.69;88.98
21980;BME280;11154;48.558;9.234;2023-11-21T08:16:59;97097.13;;;14.74;89.54
21980;BME280;11154;48.558;9.234;2023-11-21T08:19:00;97094.44;;;14.74;89.72
21980;BME280;11154;48.558;9.234;2023-11-21T08:21:03;97088.03;;;14.75;90.17
21980;BME280;11154;48.558;9.234;2023-11-21T08:23:06;97090.97;;;14.80;90.52
21980;BME280;11154;48.558;9.234;2023-11-21T08:25:08;97082.53;;;14.83;90.17
21980;BME280;11154;48.558;9.234;2023-11-21T08:27:10;97091.00;;;14.86;89.83
21980;BME280;11154;48.558;9.234;2023-11-21T08:29:12;97096.78;;;14.90;89.45
21980;BME280;11154;48.558;9.234;2023-11-21T08:31:13;97098.81;;;14.88;89.07
21980;BME280;11154;48.558;9.234;2023-11-21T08:33:16;97103.16;;;14.89;88.37
21980;BME280;11154;48.558;9.234;2023-11-21T08:35:17;97104.19;;;14.88;87.90
21980;BME280;11154;48.558;9.234;2023-11-21T08:37:19;97107.13;;;14.65;88.13
21980;BME280;11154;48.558;9.234;2023-11-21T08:39:23;97112.59;;;14.51;89.23
21980;BME280;11154;48.558;9.234;2023-11-21T08:41:25;97112.94;;;14.42;90.21
21980;BME280;11154;48.558;9.234;2023-11-21T08:43:28;97114.41;;;14.44;90.08
21980;BME280;11154;48.558;9.234;2023-11-21T08:45:31;97111.72;;;14.44;90.37
21980;BME280;11154;48.558;9.234;2023-11-21T08:47:34;97117.28;;;14.43;90.75
21980;BME280;11154;48.558;9.234;2023-11-21T08:49:36;97112.13;;;14.41;91.20
21980;BME280;11154;48.558;9.234;2023-11-21T08:51:38;97112.13;;;14.41;91.45
21980;BME280;11154;48.558;9.234;2023-11-21T08:53:40;97111.13;;;14.42;91.04
21980;BME280;11154;48.558;9.234;2023-11-21T08:55:42;97121.03;;;14.48;90.95
21980;BME280;11154;48.558;9.234;2023-11-21T08:57:44;97108.06;;;14.24;92.32
21980;BME280;11154;48.558;9.234;2023-11-21T08:59:47;97114.97;;;13.91;95.00
21980;BME280;11154;48.558;9.234;2023-11-21T09:01:49;97111.91;;;13.73;97.13
21980;BME280;11154;48.558;9.234;2023-11-21T09:03:51;97117.13;;;13.61;98.36
21980;BME280;11154;48.558;9.234;2023-11-21T09:05:52;97120.28;;;13.50;99.47
21980;BME280;11154;48.558;9.234;2023-11-21T09:07:54;97119.84;;;13.46;99.99
21980;BME280;11154;48.558;9.234;2023-11-21T09:09:56;97117.16;;;13.46;100.00
21980;BME280;11154;48.558;9.234;2023-11-21T09:11:59;97120.25;;;13.43;100.00
21980;BME280;11154;48.558;9.234;2023-11-21T09:14:02;97125.13;;;13.40;100.00
21980;BME280;11154;48.558;9.234;2023-11-21T09:16:04;97127.16;;;13.38;100.00
21980;BME280;11154;48.558;9.234;2023-11-21T09:18:06;97135.16;;;13.38;100.00
21980;BME280;11154;48.558;9.234;2023-11-21T09:20:08;97134.50;;;13.36;100.00
21980;BME280;11154;48.558;9.234;2023-11-21T09:22:10;97137.84;;;13.38;100.00
21980;BME280;11154;48.558;9.234;2023-11-21T09:24:12;97134.50;;;13.36;100.00
21980;BME280;11154;48.558;9.234;2023-11-21T09:26:13;97129.56;;;13.33;100.00
21980;BME280;11154;48.558;9.234;2023-11-21T09:28:17;97143.28;;;13.65;100.00
21980;BME280;11154;48.558;9.234;2023-11-21T09:30:19;97147.81;;;13.85;99.14
21980;BME280;11154;48.558;9.234;2023-11-21T09:32:21;97132.47;;;13.94;98.62
21980;BME280;11154;48.558;9.234;2023-11-21T09:34:22;97136.84;;;14.01;97.80
21980;BME280;11154;48.558;9.234;2023-11-21T09:36:24;97137.59;;;14.10;96.95
21980;BME280;11154;48.558;9.234;2023-11-21T09:38:28;97147.34;;;14.17;96.65
21980;BME280;11154;48.558;9.234;2023-11-21T09:40:30;97142.22;;;14.22;95.94
21980;BME280;11154;48.558;9.234;2023-11-21T09:42:36;97151.13;;;14.29;95.18
21980;BME280;11154;48.558;9.234;2023-11-21T09:44:46;97151.38;;;14.34;94.27
21980;BME280;11154;48.558;9.234;2023-11-21T09:46:50;97151.63;;;14.39;94.19
21980;BME280;11154;48.558;9.234;2023-11-21T09:48:55;97154.72;;;14.43;93.83
21980;BME280;11154;48.558;9.234;2023-11-21T09:51:01;97160.53;;;14.46;94.42
21980;BME280;11154;48.558;9.234;2023-11-21T09:53:11;97155.41;;;14.51;94.58
21980;BME280;11154;48.558;9.234;2023-11-21T09:55:16;97160.19;;;14.55;94.55
21980;BME280;11154;48.558;9.234;2023-11-21T09:57:19;97156.94;;;14.60;94.32
21980;BME280;11154;48.558;9.234;2023-11-21T09:59:22;97158.19;;;14.64;94.44
21980;BME280;11154;48.558;9.234;2023-11-21T10:01:26;97158.19;;;14.64;94.49
21980;BME280;11154;48.558;9.234;2023-11-21T10:03:29;97163.31;;;14.65;94.60
21980;BME280;11154;48.558;9.234;2023-11-21T10:05:31;97160.03;;;14.63;93.82
21980;BME280;11154;48.558;9.234;2023-11-21T10:07:34;97160.84;;;14.64;92.52
21980;BME280;11154;48.558;9.234;2023-11-21T10:09:36;97163.75;;;14.62;92.94
21980;BME280;11154;48.558;9.234;2023-11-21T10:11:40;97168.28;;;14.62;92.90
21980;BME280;11154;48.558;9.234;2023-11-21T10:13:43;97164.97;;;14.60;92.52
21980;BME280;11154;48.558;9.234;2023-11-21T10:15:49;97174.66;;;14.61;92.08
21980;BME280;11154;48.558;9.234;2023-11-21T10:17:53;97169.28;;;14.61;91.90
21980;BME280;11154;48.558;9.234;2023-11-21T10:19:56;97172.53;;;14.56;89.26
21980;BME280;11154;48.558;9.234;2023-11-21T10:21:58;97164.91;;;14.53;91.20
21980;BME280;11154;48.558;9.234;2023-11-21T10:24:04;97173.94;;;14.52;90.51
21980;BME280;11154;48.558;9.234;2023-11-21T10:26:08;97171.47;;;14.51;91.51
21980;BME280;11154;48.558;9.234;2023-11-21T10:28:16;97169.44;;;14.53;92.87
21980;BME280;11154;48.558;9.234;2023-11-21T10:30:17;97172.75;;;14.55;93.43
21980;BME280;11154;48.558;9.234;2023-11-21T10:32:19;97178.13;;;14.61;95.36
21980;BME280;11154;48.558;9.234;2023-11-21T10:34:22;97175.66;;;14.60;94.37
21980;BME280;11154;48.558;9.234;2023-11-21T10:36:27;97173.19;;;14.58;93.60
21980;BME280;11154;48.558;9.234;2023-11-21T10:38:33;97173.34;;;14.57;92.94
21980;BME280;11154;48.558;9.234;2023-11-21T10:40:43;97174.22;;;14.57;93.30
21980;BME280;11154;48.558;9.234;2023-11-21T10:42:46;97181.16;;;14.52;90.94
21980;BME280;11154;48.558;9.234;2023-11-21T10:44:48;97171.91;;;14.54;91.79